Time,TemperatureF,DewpointF,PressureIn,WindDirection,WindDirectionDegrees,WindSpeedMPH,WindSpeedGustMPH,Humidity,HourlyPrecipIn,Conditions,Clouds,dailyrainin,SoftwareType,DateUTC
2013-06-11 00:00:00,66.9,61.6,29.89,NNE,23,0.0,0.0,83,0.00,RA,OVC,0.00,WeatherDisplay:10.37,2013-06-11 04:00:00,
2013-06-11 00:05:00,66.4,61.4,29.89,North,9,0.0,0.0,84,0.00,RA,OVC,0.00,WeatherDisplay:10.37,2013-06-11 04:05:00,
2013-06-11 00:10:00,66.2,61.6,29.89,North,0,0.0,0.0,85,0.00,CLR,OVC,0.00,WeatherDisplay:10.37,2013-06-11 04:10:00,
2013-06-11 00:15:00,66.2,62.2,29.89,North,0,0.0,0.0,87,0.00,CLR,OVC,0.00,WeatherDisplay:10.37,2013-06-11 04:15:00,
2013-06-11 00:20:00,66.3,62.3,29.89,North,0,0.0,0.0,87,0.00,CLR,OVC,0.00,WeatherDisplay:10.37,2013-06-11 04:20:00,
2013-06-11 00:25:00,66.3,62.6,29.89,North,349,0.0,2.0,88,0.00,CLR,OVC,0.00,WeatherDisplay:10.37,2013-06-11 04:25:00,
2013-06-11 00:30:00,66.3,62.7,29.89,North,353,0.0,0.0,88,0.00,CLR,OVC,0.00,WeatherDisplay:10.37,2013-06-11 04:30:00,
2013-06-11 00:40:00,66.4,62.7,29.89,North,359,0.0,4.0,88,0.00,CLR,OVC,0.00,WeatherDisplay:10.37,2013-06-11 04:40:00,
2013-06-11 00:50:00,66.4,62.7,29.89,North,350,0.0,5.0,88,0.00,CLR,OVC,0.00,WeatherDisplay:10.37,2013-06-11 04:50:00,
2013-06-11 01:00:00,66.6,62.6,29.89,North,1,0.0,0.0,87,0.00,CLR,OVC,0.00,WeatherDisplay:10.37,2013-06-11 05:00:00,
2013-06-11 01:05:00,66.4,62.5,29.89,North,357,0.0,3.0,87,0.00,CLR,OVC,0.00,WeatherDisplay:10.37,2013-06-11 05:05:00,
2013-06-11 01:10:00,66.4,62.4,29.89,North,357,0.0,0.0,87,0.00,CLR,OVC,0.00,WeatherDisplay:10.37,2013-06-11 05:10:00,
2013-06-11 01:20:00,65.9,62.0,29.89,NNW,332,0.0,3.0,87,0.00,CLR,OVC,0.00,WeatherDisplay:10.37,2013-06-11 05:20:00,
2013-06-11 01:30:00,65.7,62.0,29.89,North,1,0.0,0.0,88,0.00,CLR,OVC,0.00,WeatherDisplay:10.37,2013-06-11 05:30:00,
2013-06-11 01:40:00,65.4,61.7,29.89,NNW,346,0.0,2.0,88,0.00,CLR,OVC,0.00,WeatherDisplay:10.37,2013-06-11 05:40:00,
2013-06-11 01:50:00,65.3,61.7,29.89,North,1,0.0,0.0,88,0.00,CLR,OVC,0.00,WeatherDisplay:10.37,2013-06-11 05:50:00,
2013-06-11 02:00:00,65.1,61.8,29.89,North,355,0.0,2.0,89,0.00,CLR,OVC,0.00,WeatherDisplay:10.37,2013-06-11 06:00:00,
2013-06-11 02:05:00,65.1,61.8,29.89,North,2,0.0,0.0,89,0.00,CLR,OVC,0.00,WeatherDisplay:10.37,2013-06-11 06:05:00,
2013-06-11 02:10:00,65.0,61.7,29.89,North,2,0.0,0.0,89,0.00,CLR,OVC,0.00,WeatherDisplay:10.37,2013-06-11 06:10:00,
2013-06-11 02:20:00,64.9,61.5,29.89,North,2,0.0,0.0,89,0.00,CLR,OVC,0.00,WeatherDisplay:10.37,2013-06-11 06:20:00,
2013-06-11 02:30:00,64.8,61.8,29.89,NW,317,0.0,4.0,90,0.00,CLR,OVC,0.00,WeatherDisplay:10.37,2013-06-11 06:30:00,
2013-06-11 02:40:00,64.8,61.8,29.89,NW,314,1.0,3.0,90,0.00,CLR,OVC,0.00,WeatherDisplay:10.37,2013-06-11 06:40:00,
2013-06-11 02:50:00,64.7,61.7,29.89,North,350,0.0,3.0,90,0.00,CLR,OVC,0.00,WeatherDisplay:10.37,2013-06-11 06:50:00,
2013-06-11 03:00:00,64.6,61.6,29.89,NW,313,1.0,4.0,90,0.00,CLR,OVC,0.00,WeatherDisplay:10.37,2013-06-11 07:00:00,
2013-06-11 03:05:00,64.6,61.9,29.89,NW,316,0.0,5.0,91,0.00,CLR,OVC,0.00,WeatherDisplay:10.37,2013-06-11 07:05:00,
2013-06-11 03:10:00,64.5,61.8,29.89,West,265,2.0,4.0,91,0.00,CLR,OVC,0.00,WeatherDisplay:10.37,2013-06-11 07:10:00,
2013-06-11 03:20:00,64.5,61.8,29.89,NNW,346,0.0,3.0,91,0.00,CLR,OVC,0.00,WeatherDisplay:10.37,2013-06-11 07:20:00,
2013-06-11 03:30:00,64.4,61.7,29.89,North,3,0.0,0.0,91,0.00,CLR,OVC,0.00,WeatherDisplay:10.37,2013-06-11 07:30:00,
2013-06-11 03:40:00,64.2,61.5,29.89,North,3,0.0,0.0,91,0.00,CLR,OVC,0.00,WeatherDisplay:10.37,2013-06-11 07:40:00,
2013-06-11 03:50:00,63.8,61.1,29.89,North,3,0.0,0.0,91,0.00,CLR,OVC,0.00,WeatherDisplay:10.37,2013-06-11 07:50:00,
2013-06-11 04:00:00,63.4,60.8,29.90,North,4,0.0,0.0,91,0.00,CLR,OVC,0.00,WeatherDisplay:10.37,2013-06-11 08:00:00,
2013-06-11 04:05:00,63.3,60.9,29.90,North,4,0.0,0.0,92,0.00,CLR,OVC,0.00,WeatherDisplay:10.37,2013-06-11 08:05:00,
2013-06-11 04:10:00,63.3,60.9,29.89,North,4,0.0,1.0,92,0.00,CLR,OVC,0.00,WeatherDisplay:10.37,2013-06-11 08:10:00,
2013-06-11 04:20:00,63.4,61.3,29.90,North,4,0.0,0.0,93,0.00,CLR,OVC,0.00,WeatherDisplay:10.37,2013-06-11 08:20:00,
2013-06-11 04:30:00,63.6,61.5,29.90,North,360,0.0,2.0,93,0.00,CLR,OVC,0.00,WeatherDisplay:10.37,2013-06-11 08:30:00,
2013-06-11 04:40:00,63.9,61.9,29.90,North,360,0.0,3.0,93,0.00,CLR,OVC,0.00,WeatherDisplay:10.37,2013-06-11 08:40:00,
2013-06-11 04:50:00,64.4,62.3,29.90,North,351,0.0,2.0,93,0.00,CLR,OVC,0.00,WeatherDisplay:10.37,2013-06-11 08:50:00,
2013-06-11 05:00:00,64.7,62.6,29.90,WNW,301,0.0,4.0,93,0.00,CLR,OVC,0.00,WeatherDisplay:10.37,2013-06-11 09:00:00,
2013-06-11 05:05:00,64.8,62.4,29.90,NW,315,1.0,3.0,92,0.00,CLR,OVC,0.00,WeatherDisplay:10.37,2013-06-11 09:05:00,
2013-06-11 05:10:00,64.8,62.4,29.90,NW,319,1.0,3.0,92,0.00,CLR,OVC,0.00,WeatherDisplay:10.37,2013-06-11 09:10:00,
2013-06-11 05:20:00,65.0,62.6,29.91,WSW,246,2.0,7.0,92,0.00,CLR,OVC,0.00,WeatherDisplay:10.37,2013-06-11 09:20:00,
2013-06-11 05:30:00,65.2,62.5,29.91,NW,308,0.0,3.0,91,0.00,CLR,OVC,0.00,WeatherDisplay:10.37,2013-06-11 09:30:00,
2013-06-11 05:40:00,65.1,62.4,29.91,SW,224,2.0,6.0,91,0.00,CLR,OVC,0.00,WeatherDisplay:10.37,2013-06-11 09:40:00,
2013-06-11 05:50:00,65.2,62.5,29.92,WSW,239,2.0,6.0,91,0.00,CLR,OVC,0.00,WeatherDisplay:10.37,2013-06-11 09:50:00,
2013-06-11 06:00:00,65.3,62.6,29.92,West,275,1.0,4.0,91,0.00,CLR,OVC,0.00,WeatherDisplay:10.37,2013-06-11 10:00:00,
2013-06-11 06:05:00,65.3,62.6,29.92,West,275,1.0,5.0,91,0.00,CLR,OVC,0.00,WeatherDisplay:10.37,2013-06-11 10:05:00,
2013-06-11 06:10:00,65.4,62.7,29.93,West,277,2.0,6.0,91,0.00,CLR,OVC,0.00,WeatherDisplay:10.37,2013-06-11 10:10:00,
2013-06-11 06:20:00,65.3,62.6,29.93,WSW,237,3.0,7.0,91,0.00,CLR,OVC,0.00,WeatherDisplay:10.37,2013-06-11 10:20:00,
2013-06-11 06:30:00,65.4,62.7,29.93,WSW,257,1.0,7.0,91,0.00,CLR,OVC,0.00,WeatherDisplay:10.37,2013-06-11 10:30:00,
2013-06-11 06:40:00,65.5,62.5,29.93,SW,233,3.0,6.0,90,0.00,CLR,OVC,0.00,WeatherDisplay:10.37,2013-06-11 10:40:00,
2013-06-11 06:50:00,65.7,62.6,29.94,SW,235,2.0,5.0,90,0.00,CLR,OVC,0.00,WeatherDisplay:10.37,2013-06-11 10:50:00,
2013-06-11 07:00:00,65.9,62.5,29.94,SW,236,1.0,5.0,89,0.00,CLR,OVC,0.00,WeatherDisplay:10.37,2013-06-11 11:00:00,
2013-06-11 07:05:00,65.8,62.5,29.94,WSW,248,1.0,6.0,89,0.00,CLR,OVC,0.00,WeatherDisplay:10.37,2013-06-11 11:05:00,
2013-06-11 07:10:00,65.9,62.6,29.95,SW,236,5.0,7.0,89,0.00,CLR,OVC,0.00,WeatherDisplay:10.37,2013-06-11 11:10:00,
2013-06-11 07:20:00,65.9,62.2,29.95,SW,223,3.0,8.0,88,0.00,CLR,OVC,0.00,WeatherDisplay:10.37,2013-06-11 11:20:00,
2013-06-11 07:30:00,66.4,62.4,29.96,WSW,242,1.0,6.0,87,0.00,CLR,OVC,0.00,WeatherDisplay:10.37,2013-06-11 11:30:00,
2013-06-11 07:40:00,66.6,62.6,29.96,WSW,240,2.0,6.0,87,0.00,CLR,OVC,0.00,WeatherDisplay:10.37,2013-06-11 11:40:00,
2013-06-11 07:50:00,66.6,62.3,29.97,WNW,296,0.0,6.0,86,0.00,CLR,OVC,0.00,WeatherDisplay:10.37,2013-06-11 11:50:00,
2013-06-11 08:00:00,66.8,62.4,29.97,WNW,289,3.0,8.0,86,0.00,CLR,OVC,0.00,WeatherDisplay:10.37,2013-06-11 12:00:00,
2013-06-11 08:05:00,66.8,62.5,29.97,WNW,286,0.0,5.0,86,0.00,CLR,OVC,0.00,WeatherDisplay:10.37,2013-06-11 12:05:00,
2013-06-11 08:10:00,67.0,62.6,29.97,West,266,1.0,5.0,86,0.00,CLR,OVC,0.00,WeatherDisplay:10.37,2013-06-11 12:10:00,
2013-06-11 08:20:00,67.1,62.4,29.98,WNW,294,1.0,7.0,85,0.00,CLR,OVC,0.00,WeatherDisplay:10.37,2013-06-11 12:20:00,
2013-06-11 08:30:00,67.2,62.5,29.98,WNW,295,1.0,7.0,85,0.00,CLR,OVC,0.00,WeatherDisplay:10.37,2013-06-11 12:30:00,
2013-06-11 08:40:00,67.1,62.5,29.99,NW,311,1.0,6.0,85,0.00,CLR,OVC,0.00,WeatherDisplay:10.37,2013-06-11 12:40:00,
2013-06-11 08:50:00,67.5,62.8,29.99,WNW,288,0.0,4.0,85,0.00,CLR,OVC,0.00,WeatherDisplay:10.37,2013-06-11 12:50:00,
2013-06-11 09:00:00,68.0,63.0,29.99,West,270,1.0,6.0,84,0.00,CLR,OVC,0.00,WeatherDisplay:10.37,2013-06-11 13:00:00,
2013-06-11 09:05:00,68.1,62.7,29.99,WNW,284,1.0,8.0,83,0.00,CLR,OVC,0.00,WeatherDisplay:10.37,2013-06-11 13:05:00,
2013-06-11 09:10:00,68.3,62.6,29.99,WNW,285,2.0,7.0,82,0.00,CLR,OVC,0.00,WeatherDisplay:10.37,2013-06-11 13:10:00,
2013-06-11 09:20:00,68.5,62.4,30.00,WNW,295,0.0,5.0,81,0.00,CLR,OVC,0.00,WeatherDisplay:10.37,2013-06-11 13:20:00,
2013-06-11 09:30:00,68.4,62.0,30.00,West,278,2.0,10.0,80,0.00,CLR,OVC,0.00,WeatherDisplay:10.37,2013-06-11 13:30:00,
2013-06-11 09:40:00,68.6,61.8,30.00,NW,304,3.0,12.0,79,0.00,CLR,OVC,0.00,WeatherDisplay:10.37,2013-06-11 13:40:00,
2013-06-11 09:50:00,68.6,61.4,29.99,WNW,288,2.0,7.0,78,0.00,CLR,OVC,0.00,WeatherDisplay:10.37,2013-06-11 13:50:00,
2013-06-11 10:00:00,69.0,61.8,30.00,West,278,2.0,7.0,78,0.00,CLR,OVC,0.00,WeatherDisplay:10.37,2013-06-11 14:00:00,
2013-06-11 10:05:00,69.1,62.0,30.00,WNW,283,3.0,9.0,78,0.00,CLR,OVC,0.00,WeatherDisplay:10.37,2013-06-11 14:05:00,
2013-06-11 10:10:00,68.9,61.8,30.00,NW,310,6.0,13.0,78,0.00,CLR,OVC,0.00,WeatherDisplay:10.37,2013-06-11 14:10:00,
2013-06-11 10:20:00,68.7,61.2,30.00,West,278,3.0,10.0,77,0.00,CLR,OVC,0.00,WeatherDisplay:10.37,2013-06-11 14:20:00,
2013-06-11 10:30:00,69.9,61.6,30.00,WNW,299,5.0,7.0,75,0.00,CLR,OVC,0.00,WeatherDisplay:10.37,2013-06-11 14:30:00,
2013-06-11 10:40:00,69.5,60.9,30.00,NW,326,3.0,10.0,74,0.00,CLR,OVC,0.00,WeatherDisplay:10.37,2013-06-11 14:40:00,
2013-06-11 10:50:00,69.7,60.3,30.01,NW,305,3.0,11.0,72,0.00,CLR,OVC,0.00,WeatherDisplay:10.37,2013-06-11 14:50:00,
2013-06-11 11:00:00,70.7,60.8,30.00,West,269,3.0,7.0,71,0.00,CLR,OVC,0.00,WeatherDisplay:10.37,2013-06-11 15:00:00,
2013-06-11 11:05:00,71.2,60.9,30.01,WNW,294,3.0,7.0,70,0.00,CLR,OVC,0.00,WeatherDisplay:10.37,2013-06-11 15:05:00,
2013-06-11 11:10:00,71.5,61.2,30.00,WNW,302,1.0,6.0,70,0.00,CLR,OVC,0.00,WeatherDisplay:10.37,2013-06-11 15:10:00,
2013-06-11 11:20:00,71.7,61.4,30.01,SW,231,3.0,8.0,70,0.00,CLR,OVC,0.00,WeatherDisplay:10.37,2013-06-11 15:20:00,
2013-06-11 11:30:00,72.2,61.5,30.01,WSW,252,6.0,9.0,69,0.00,CLR,OVC,0.00,WeatherDisplay:10.37,2013-06-11 15:30:00,
2013-06-11 11:40:00,72.2,61.5,30.01,West,280,2.0,10.0,69,0.00,CLR,OVC,0.00,WeatherDisplay:10.37,2013-06-11 15:40:00,
2013-06-11 11:50:00,73.0,61.3,30.01,WNW,287,1.0,8.0,67,0.00,CLR,OVC,0.00,WeatherDisplay:10.37,2013-06-11 15:50:00,
2013-06-11 12:00:00,73.8,61.3,30.02,NW,313,3.0,11.0,65,0.00,CLR,OVC,0.00,WeatherDisplay:10.37,2013-06-11 16:00:00,
2013-06-11 12:05:00,74.1,61.6,30.02,West,276,6.0,10.0,65,0.00,CLR,OVC,0.00,WeatherDisplay:10.37,2013-06-11 16:05:00,
2013-06-11 12:10:00,73.2,60.7,30.02,NW,312,2.0,10.0,65,0.00,CLR,OVC,0.00,WeatherDisplay:10.37,2013-06-11 16:10:00,
2013-06-11 12:20:00,74.8,61.4,30.02,NNW,336,0.0,7.0,63,0.00,CLR,OVC,0.00,WeatherDisplay:10.37,2013-06-11 16:20:00,
2013-06-11 12:30:00,75.1,61.6,30.02,WSW,240,5.0,9.0,63,0.00,CLR,OVC,0.00,WeatherDisplay:10.37,2013-06-11 16:30:00,
2013-06-11 12:40:00,75.4,61.9,30.01,WSW,252,1.0,8.0,63,0.00,CLR,OVC,0.00,WeatherDisplay:10.37,2013-06-11 16:40:00,
2013-06-11 12:50:00,76.3,61.8,30.01,West,280,1.0,9.0,61,0.00,CLR,OVC,0.00,WeatherDisplay:10.37,2013-06-11 16:50:00,
2013-06-11 13:00:00,76.8,62.7,30.00,West,259,1.0,9.0,62,0.00,CLR,OVC,0.00,WeatherDisplay:10.37,2013-06-11 17:00:00,
2013-06-11 13:05:00,76.6,61.2,30.01,West,261,5.0,8.0,59,0.00,CLR,OVC,0.00,WeatherDisplay:10.37,2013-06-11 17:05:00,
2013-06-11 13:10:00,77.2,62.3,30.01,West,270,0.0,9.0,60,0.00,CLR,OVC,0.00,WeatherDisplay:10.37,2013-06-11 17:10:00,
2013-06-11 13:20:00,77.0,61.1,30.01,West,274,1.0,12.0,58,0.00,CLR,OVC,0.00,WeatherDisplay:10.37,2013-06-11 17:20:00,
2013-06-11 13:30:00,77.6,62.6,30.01,WSW,240,2.0,9.0,60,0.00,CLR,OVC,0.00,WeatherDisplay:10.37,2013-06-11 17:30:00,
2013-06-11 13:40:00,77.8,61.9,30.01,WSW,252,3.0,8.0,58,0.00,CLR,OVC,0.00,WeatherDisplay:10.37,2013-06-11 17:40:00,
2013-06-11 13:50:00,78.1,62.1,30.00,West,276,1.0,8.0,58,0.00,CLR,OVC,0.00,WeatherDisplay:10.37,2013-06-11 17:50:00,
2013-06-11 14:00:00,79.5,62.4,30.00,West,275,1.0,10.0,56,0.00,CLR,OVC,0.00,WeatherDisplay:10.37,2013-06-11 18:00:00,
2013-06-11 14:05:00,79.7,62.6,30.00,WSW,256,2.0,8.0,56,0.00,CLR,OVC,0.00,WeatherDisplay:10.37,2013-06-11 18:05:00,
2013-06-11 14:10:00,79.4,62.3,30.00,West,259,6.0,9.0,56,0.00,CLR,OVC,0.00,WeatherDisplay:10.37,2013-06-11 18:10:00,
2013-06-11 14:20:00,79.4,62.4,29.99,WNW,298,3.0,8.0,56,0.00,CLR,OVC,0.00,WeatherDisplay:10.37,2013-06-11 18:20:00,
2013-06-11 14:30:00,79.2,62.2,29.99,WSW,241,3.0,14.0,56,0.00,CLR,OVC,0.00,WeatherDisplay:10.37,2013-06-11 18:30:00,
2013-06-11 14:40:00,79.9,61.8,29.99,West,277,2.0,9.0,54,0.00,CLR,OVC,0.00,WeatherDisplay:10.37,2013-06-11 18:40:00,
2013-06-11 14:50:00,80.6,61.9,29.99,WSW,257,5.0,8.0,53,0.00,CLR,OVC,0.00,WeatherDisplay:10.37,2013-06-11 18:50:00,
2013-06-11 15:00:00,81.3,62.0,29.99,West,278,6.0,10.0,52,0.00,CLR,OVC,0.00,WeatherDisplay:10.37,2013-06-11 19:00:00,
2013-06-11 15:05:00,81.3,60.3,29.99,West,275,6.0,10.0,49,0.00,CLR,OVC,0.00,WeatherDisplay:10.37,2013-06-11 19:05:00,
2013-06-11 15:10:00,81.5,60.5,29.99,West,267,3.0,9.0,49,0.00,CLR,OVC,0.00,WeatherDisplay:10.37,2013-06-11 19:10:00,
2013-06-11 15:20:00,81.4,61.5,29.99,West,267,6.0,12.0,51,0.00,CLR,OVC,0.00,WeatherDisplay:10.37,2013-06-11 19:20:00,
2013-06-11 15:30:00,81.2,60.8,29.99,West,269,3.0,9.0,50,0.00,CLR,OVC,0.00,WeatherDisplay:10.37,2013-06-11 19:30:00,
2013-06-11 15:40:00,81.9,60.3,29.99,West,262,5.0,8.0,48,0.00,CLR,OVC,0.00,WeatherDisplay:10.37,2013-06-11 19:40:00,
2013-06-11 15:50:00,81.4,60.4,29.99,West,268,3.0,9.0,49,0.00,CLR,OVC,0.00,WeatherDisplay:10.37,2013-06-11 19:50:00,
2013-06-11 16:00:00,81.3,60.3,29.99,SW,232,2.0,9.0,49,0.00,CLR,OVC,0.00,WeatherDisplay:10.37,2013-06-11 20:00:00,
2013-06-11 16:05:00,81.4,60.4,29.99,SW,232,3.0,11.0,49,0.00,CLR,OVC,0.00,WeatherDisplay:10.37,2013-06-11 20:05:00,
2013-06-11 16:10:00,81.7,60.1,29.98,WSW,237,3.0,8.0,48,0.00,CLR,OVC,0.00,WeatherDisplay:10.37,2013-06-11 20:10:00,
2013-06-11 16:20:00,82.0,61.0,29.98,SW,232,2.0,7.0,49,0.00,CLR,OVC,0.00,WeatherDisplay:10.37,2013-06-11 20:20:00,
2013-06-11 16:30:00,83.0,60.1,29.98,West,260,3.0,8.0,46,0.00,CLR,OVC,0.00,WeatherDisplay:10.37,2013-06-11 20:30:00,
2013-06-11 16:40:00,82.1,60.5,29.97,WSW,239,2.0,12.0,48,0.00,CLR,OVC,0.00,WeatherDisplay:10.37,2013-06-11 20:40:00,
2013-06-11 16:50:00,82.3,60.0,29.97,SW,226,2.0,8.0,47,0.00,CLR,OVC,0.00,WeatherDisplay:10.37,2013-06-11 20:50:00,
2013-06-11 17:00:00,83.4,60.4,29.97,WSW,257,5.0,9.0,46,0.00,CLR,OVC,0.00,WeatherDisplay:10.37,2013-06-11 21:00:00,
2013-06-11 17:05:00,83.3,61.0,29.97,WNW,302,1.0,8.0,47,0.00,CLR,OVC,0.00,WeatherDisplay:10.37,2013-06-11 21:05:00,
2013-06-11 17:10:00,83.7,60.1,29.97,WNW,287,3.0,7.0,45,0.00,CLR,OVC,0.00,WeatherDisplay:10.37,2013-06-11 21:10:00,
2013-06-11 17:20:00,82.5,60.8,29.97,SW,219,5.0,8.0,48,0.00,CLR,OVC,0.00,WeatherDisplay:10.37,2013-06-11 21:20:00,
2013-06-11 17:30:00,82.5,60.2,29.96,WSW,242,3.0,7.0,47,0.00,CLR,OVC,0.00,WeatherDisplay:10.37,2013-06-11 21:30:00,
2013-06-11 17:40:00,83.1,61.3,29.96,SW,236,1.0,12.0,48,0.00,CLR,OVC,0.00,WeatherDisplay:10.37,2013-06-11 21:40:00,
2013-06-11 17:50:00,83.4,61.1,29.95,WSW,254,3.0,9.0,47,0.00,CLR,OVC,0.00,WeatherDisplay:10.37,2013-06-11 21:50:00,
2013-06-11 18:00:00,83.6,61.2,29.95,WSW,258,2.0,7.0,47,0.00,CLR,OVC,0.00,WeatherDisplay:10.37,2013-06-11 22:00:00,
2013-06-11 18:05:00,83.8,61.4,29.95,WNW,288,0.0,7.0,47,0.00,CLR,OVC,0.00,WeatherDisplay:10.37,2013-06-11 22:05:00,
2013-06-11 18:10:00,83.7,61.9,29.95,WNW,283,1.0,9.0,48,0.00,CLR,OVC,0.00,WeatherDisplay:10.37,2013-06-11 22:10:00,
2013-06-11 18:20:00,82.1,61.1,29.94,SW,221,3.0,8.0,49,0.00,CLR,OVC,0.00,WeatherDisplay:10.37,2013-06-11 22:20:00,
2013-06-11 18:31:00,83.0,61.3,29.94,SSW,210,0.0,6.0,48,0.00,CLR,OVC,0.00,WeatherDisplay:10.37,2013-06-11 22:31:00,
2013-06-11 18:40:00,82.6,61.5,29.95,WSW,239,2.0,9.0,49,0.00,CLR,OVC,0.00,WeatherDisplay:10.37,2013-06-11 22:40:00,
2013-06-11 18:50:00,82.4,61.4,29.95,SW,225,3.0,10.0,49,0.00,CLR,OVC,0.00,WeatherDisplay:10.37,2013-06-11 22:50:00,
2013-06-11 19:00:00,82.3,61.2,29.96,WSW,252,2.0,10.0,49,0.00,CLR,OVC,0.00,WeatherDisplay:10.37,2013-06-11 23:00:00,
2013-06-11 19:05:00,81.7,61.3,29.95,SW,235,5.0,12.0,50,0.00,CLR,OVC,0.00,WeatherDisplay:10.37,2013-06-11 23:05:00,
2013-06-11 19:10:00,81.6,61.2,29.95,SW,227,2.0,6.0,50,0.00,CLR,OVC,0.00,WeatherDisplay:10.37,2013-06-11 23:10:00,
2013-06-11 19:20:00,81.7,61.3,29.95,SW,235,2.0,5.0,50,0.00,CLR,OVC,0.00,WeatherDisplay:10.37,2013-06-11 23:20:00,
2013-06-11 19:30:00,81.6,61.7,29.95,SSW,208,1.0,7.0,51,0.00,CLR,OVC,0.00,WeatherDisplay:10.37,2013-06-11 23:30:00,
2013-06-11 19:40:00,81.1,61.8,29.96,SSW,206,5.0,10.0,52,0.00,CLR,OVC,0.00,WeatherDisplay:10.37,2013-06-11 23:40:00,
2013-06-11 19:50:00,80.8,62.6,29.96,SW,218,5.0,9.0,54,0.00,CLR,OVC,0.00,WeatherDisplay:10.37,2013-06-11 23:50:00,
2013-06-11 20:00:00,80.5,62.3,29.96,SW,219,5.0,9.0,54,0.00,CLR,OVC,0.00,WeatherDisplay:10.37,2013-06-12 00:00:00,
2013-06-11 20:05:00,80.3,62.2,29.97,SW,216,5.0,9.0,54,0.00,CLR,OVC,0.00,WeatherDisplay:10.37,2013-06-12 00:05:00,
2013-06-11 20:10:00,80.1,61.5,29.96,SW,219,5.0,12.0,53,0.00,CLR,OVC,0.00,WeatherDisplay:10.37,2013-06-12 00:10:00,
2013-06-11 20:20:00,80.0,60.8,29.96,SW,216,5.0,12.0,52,0.00,CLR,OVC,0.00,WeatherDisplay:10.37,2013-06-12 00:20:00,
2013-06-11 20:30:00,79.8,60.6,29.96,SSW,213,5.0,11.0,52,0.00,CLR,OVC,0.00,WeatherDisplay:10.37,2013-06-12 00:30:00,
2013-06-11 20:40:00,79.5,60.9,29.96,SW,216,3.0,9.0,53,0.00,CLR,OVC,0.00,WeatherDisplay:10.37,2013-06-12 00:40:00,
2013-06-11 20:50:00,79.2,61.1,29.95,SW,220,2.0,9.0,54,0.00,CLR,OVC,0.00,WeatherDisplay:10.37,2013-06-12 00:50:00,
2013-06-11 21:00:00,79.3,61.2,29.92,SW,222,1.0,6.0,54,0.00,CLR,OVC,0.00,WeatherDisplay:10.37,2013-06-12 01:00:00,
2013-06-11 21:05:00,79.1,61.0,29.92,NE,45,0.0,6.0,54,0.00,CLR,OVC,0.00,WeatherDisplay:10.37,2013-06-12 01:05:00,
2013-06-11 21:10:00,78.8,61.7,29.92,ENE,64,0.0,5.0,56,0.00,CLR,OVC,0.00,WeatherDisplay:10.37,2013-06-12 01:10:00,
2013-06-11 21:20:00,78.3,61.3,29.93,ENE,74,0.0,5.0,56,0.00,CLR,OVC,0.00,WeatherDisplay:10.37,2013-06-12 01:20:00,
2013-06-11 21:30:00,78.0,62.1,29.94,West,280,0.0,3.0,58,0.00,CLR,OVC,0.00,WeatherDisplay:10.37,2013-06-12 01:30:00,
2013-06-11 21:40:00,77.9,61.9,29.94,NNW,329,0.0,5.0,58,0.00,CLR,OVC,0.00,WeatherDisplay:10.37,2013-06-12 01:40:00,
2013-06-11 21:50:00,77.7,61.7,29.94,NNE,21,0.0,0.0,58,0.00,CLR,OVC,0.00,WeatherDisplay:10.37,2013-06-12 01:50:00,
2013-06-11 22:00:00,77.3,61.8,29.93,NNE,22,0.0,1.0,59,0.00,CLR,OVC,0.00,WeatherDisplay:10.37,2013-06-12 02:00:00,
2013-06-11 22:05:00,77.2,61.7,29.94,NNE,22,0.0,0.0,59,0.00,CLR,OVC,0.00,WeatherDisplay:10.37,2013-06-12 02:05:00,
2013-06-11 22:10:00,77.0,62.1,29.94,NNE,22,0.0,0.0,60,0.00,CLR,OVC,0.00,WeatherDisplay:10.37,2013-06-12 02:10:00,
2013-06-11 22:20:00,76.6,61.6,29.93,NNE,22,0.0,0.0,60,0.00,CLR,OVC,0.00,WeatherDisplay:10.37,2013-06-12 02:20:00,
2013-06-11 22:30:00,76.1,62.6,29.94,NNE,22,0.0,0.0,63,0.00,CLR,OVC,0.00,WeatherDisplay:10.37,2013-06-12 02:30:00,
2013-06-11 22:40:00,76.0,61.6,29.96,WSW,241,3.0,9.0,61,0.00,CLR,OVC,0.00,WeatherDisplay:10.37,2013-06-12 02:40:00,
2013-06-11 22:50:00,76.3,61.9,29.96,SW,216,5.0,8.0,61,0.00,CLR,OVC,0.00,WeatherDisplay:10.37,2013-06-12 02:50:00,
2013-06-11 23:00:00,76.3,61.8,29.96,SW,227,2.0,7.0,61,0.00,CLR,OVC,0.00,WeatherDisplay:10.37,2013-06-12 03:00:00,
2013-06-11 23:05:00,76.2,61.8,29.97,SW,220,3.0,8.0,61,0.00,CLR,OVC,0.00,WeatherDisplay:10.37,2013-06-12 03:05:00,
2013-06-11 23:10:00,76.2,62.2,29.97,SW,220,3.0,7.0,62,0.00,CLR,OVC,0.00,WeatherDisplay:10.37,2013-06-12 03:10:00,
2013-06-11 23:20:00,75.9,62.4,29.98,West,274,1.0,6.0,63,0.00,CLR,OVC,0.00,WeatherDisplay:10.37,2013-06-12 03:20:00,
2013-06-11 23:30:00,75.6,62.5,29.98,WSW,248,1.0,5.0,64,0.00,CLR,OVC,0.00,WeatherDisplay:10.37,2013-06-12 03:30:00,
2013-06-11 23:40:00,75.2,62.2,29.98,North,11,0.0,0.0,64,0.00,CLR,OVC,0.00,WeatherDisplay:10.37,2013-06-12 03:40:00,
2013-06-11 23:50:00,74.7,62.6,29.98,NNE,23,0.0,0.0,66,0.00,CLR,OVC,0.00,WeatherDisplay:10.37,2013-06-12 03:50:00,